sensor_id;sensor_type;location;lat;lon;timestamp;P1;durP1;ratioP1;P2;durP2;ratioP2
32932;SDS011;19444;50.518;10.870;2023-08-07T00:01:28;2.47;;;0.65;;
32932;SDS011;19444;50.518;10.870;2023-08-07T00:04:25;1.05;;;0.50;;
32932;SDS011;19444;50.518;10.870;2023-08-07T00:07:22;1.23;;;0.80;;
32932;SDS011;19444;50.518;10.870;2023-08-07T00:10:20;1.60;;;0.80;;
32932;SDS011;19444;50.518;10.870;2023-08-07T00:13:17;1.55;;;0.90;;
32932;SDS011;19444;50.518;10.870;2023-08-07T00:16:14;1.15;;;0.70;;
32932;SDS011;19444;50.518;10.870;2023-08-07T00:19:11;0.93;;;0.50;;
32932;SDS011;19444;50.518;10.870;2023-08-07T00:22:08;0.90;;;0.60;;
32932;SDS011;19444;50.518;10.870;2023-08-07T00:25:05;1.88;;;1.10;;
32932;SDS011;19444;50.518;10.870;2023-08-07T00:28:02;1.77;;;1.35;;
32932;SDS011;19444;50.518;10.870;2023-08-07T00:30:59;2.53;;;1.45;;
32932;SDS011;19444;50.518;10.870;2023-08-07T00:33:57;3.25;;;1.40;;
32932;SDS011;19444;50.518;10.870;2023-08-07T00:36:54;1.50;;;0.95;;
32932;SDS011;19444;50.518;10.870;2023-08-07T00:39:52;2.85;;;1.38;;
32932;SDS011;19444;50.518;10.870;2023-08-07T00:42:48;1.02;;;0.80;;
32932;SDS011;19444;50.518;10.870;2023-08-07T00:45:46;1.65;;;1.30;;
32932;SDS011;19444;50.518;10.870;2023-08-07T00:48:44;2.00;;;1.08;;
32932;SDS011;19444;50.518;10.870;2023-08-07T00:51:41;1.67;;;1.23;;
32932;SDS011;19444;50.518;10.870;2023-08-07T00:54:38;2.15;;;0.70;;
32932;SDS011;19444;50.518;10.870;2023-08-07T00:57:35;1.02;;;0.80;;
32932;SDS011;19444;50.518;10.870;2023-08-07T01:00:33;1.27;;;0.80;;
32932;SDS011;19444;50.518;10.870;2023-08-07T01:03:31;0.70;;;0.60;;
32932;SDS011;19444;50.518;10.870;2023-08-07T01:06:28;1.30;;;0.57;;
32932;SDS011;19444;50.518;10.870;2023-08-07T01:09:25;0.68;;;0.40;;
32932;SDS011;19444;50.518;10.870;2023-08-07T01:12:24;0.70;;;0.43;;
32932;SDS011;19444;50.518;10.870;2023-08-07T01:15:30;9.50;;;6.53;;
32932;SDS011;19444;50.518;10.870;2023-08-07T01:18:29;0.73;;;0.40;;
32932;SDS011;19444;50.518;10.870;2023-08-07T01:21:27;0.43;;;0.30;;
32932;SDS011;19444;50.518;10.870;2023-08-07T01:24:24;0.65;;;0.30;;
32932;SDS011;19444;50.518;10.870;2023-08-07T01:27:31;0.30;;;0.20;;
32932;SDS011;19444;50.518;10.870;2023-08-07T01:30:52;3.30;;;0.57;;
32932;SDS011;19444;50.518;10.870;2023-08-07T01:33:59;0.30;;;0.20;;
32932;SDS011;19444;50.518;10.870;2023-08-07T01:37:01;0.40;;;0.22;;
32932;SDS011;19444;50.518;10.870;2023-08-07T01:40:00;0.70;;;0.30;;
32932;SDS011;19444;50.518;10.870;2023-08-07T01:43:00;1.52;;;0.40;;
32932;SDS011;19444;50.518;10.870;2023-08-07T01:45:57;0.50;;;0.30;;
32932;SDS011;19444;50.518;10.870;2023-08-07T01:48:54;0.50;;;0.40;;
32932;SDS011;19444;50.518;10.870;2023-08-07T01:51:51;1.20;;;0.40;;
32932;SDS011;19444;50.518;10.870;2023-08-07T01:54:48;1.50;;;0.82;;
32932;SDS011;19444;50.518;10.870;2023-08-07T01:57:45;0.82;;;0.50;;
32932;SDS011;19444;50.518;10.870;2023-08-07T02:00:42;1.17;;;0.40;;
32932;SDS011;19444;50.518;10.870;2023-08-07T02:03:39;0.93;;;0.50;;
32932;SDS011;19444;50.518;10.870;2023-08-07T02:06:36;1.77;;;0.40;;
32932;SDS011;19444;50.518;10.870;2023-08-07T02:09:33;0.73;;;0.50;;
32932;SDS011;19444;50.518;10.870;2023-08-07T02:12:30;1.35;;;0.40;;
32932;SDS011;19444;50.518;10.870;2023-08-07T02:15:29;0.55;;;0.40;;
32932;SDS011;19444;50.518;10.870;2023-08-07T02:18:26;1.23;;;0.50;;
32932;SDS011;19444;50.518;10.870;2023-08-07T02:21:23;1.60;;;0.50;;
32932;SDS011;19444;50.518;10.870;2023-08-07T02:24:20;1.15;;;0.70;;
32932;SDS011;19444;50.518;10.870;2023-08-07T02:27:17;1.08;;;0.65;;
32932;SDS011;19444;50.518;10.870;2023-08-07T02:30:14;2.13;;;0.60;;
32932;SDS011;19444;50.518;10.870;2023-08-07T02:33:11;0.98;;;0.55;;
32932;SDS011;19444;50.518;10.870;2023-08-07T02:36:08;1.08;;;0.70;;
32932;SDS011;19444;50.518;10.870;2023-08-07T02:39:06;0.63;;;0.50;;
32932;SDS011;19444;50.518;10.870;2023-08-07T02:42:03;0.70;;;0.38;;
32932;SDS011;19444;50.518;10.870;2023-08-07T02:45:00;1.63;;;0.50;;
32932;SDS011;19444;50.518;10.870;2023-08-07T02:47:57;1.23;;;0.65;;
32932;SDS011;19444;50.518;10.870;2023-08-07T02:50:54;1.02;;;0.60;;
32932;SDS011;19444;50.518;10.870;2023-08-07T02:53:51;0.88;;;0.57;;
32932;SDS011;19444;50.518;10.870;2023-08-07T02:56:48;1.00;;;0.60;;
32932;SDS011;19444;50.518;10.870;2023-08-07T02:59:45;1.77;;;0.90;;
32932;SDS011;19444;50.518;10.870;2023-08-07T03:02:42;1.10;;;0.65;;
32932;SDS011;19444;50.518;10.870;2023-08-07T03:05:39;1.73;;;1.17;;
32932;SDS011;19444;50.518;10.870;2023-08-07T03:08:44;0.90;;;0.43;;
32932;SDS011;19444;50.518;10.870;2023-08-07T03:11:41;1.42;;;0.60;;
32932;SDS011;19444;50.518;10.870;2023-08-07T03:14:38;1.60;;;0.90;;
32932;SDS011;19444;50.518;10.870;2023-08-07T03:17:35;2.65;;;1.02;;
32932;SDS011;19444;50.518;10.870;2023-08-07T03:20:32;1.50;;;0.77;;
32932;SDS011;19444;50.518;10.870;2023-08-07T03:23:29;2.97;;;1.00;;
32932;SDS011;19444;50.518;10.870;2023-08-07T03:26:26;1.67;;;0.80;;
32932;SDS011;19444;50.518;10.870;2023-08-07T03:29:23;0.98;;;0.60;;
32932;SDS011;19444;50.518;10.870;2023-08-07T03:32:20;2.53;;;0.82;;
32932;SDS011;19444;50.518;10.870;2023-08-07T03:35:17;1.00;;;0.52;;
32932;SDS011;19444;50.518;10.870;2023-08-07T03:38:14;0.82;;;0.40;;
32932;SDS011;19444;50.518;10.870;2023-08-07T03:41:11;2.30;;;0.60;;
32932;SDS011;19444;50.518;10.870;2023-08-07T03:44:08;1.52;;;0.55;;
32932;SDS011;19444;50.518;10.870;2023-08-07T03:47:05;0.93;;;0.60;;
32932;SDS011;19444;50.518;10.870;2023-08-07T03:50:02;0.80;;;0.40;;
32932;SDS011;19444;50.518;10.870;2023-08-07T03:52:59;0.32;;;0.30;;
32932;SDS011;19444;50.518;10.870;2023-08-07T03:55:56;1.35;;;0.43;;
32932;SDS011;19444;50.518;10.870;2023-08-07T03:58:53;0.95;;;0.50;;
32932;SDS011;19444;50.518;10.870;2023-08-07T04:01:50;1.05;;;0.43;;
32932;SDS011;19444;50.518;10.870;2023-08-07T04:04:47;0.70;;;0.47;;
32932;SDS011;19444;50.518;10.870;2023-08-07T04:07:44;0.95;;;0.50;;
32932;SDS011;19444;50.518;10.870;2023-08-07T04:10:41;1.00;;;0.60;;
32932;SDS011;19444;50.518;10.870;2023-08-07T04:13:37;1.30;;;0.90;;
32932;SDS011;19444;50.518;10.870;2023-08-07T04:16:34;1.30;;;0.40;;
32932;SDS011;19444;50.518;10.870;2023-08-07T04:19:33;0.80;;;0.40;;
32932;SDS011;19444;50.518;10.870;2023-08-07T04:22:30;0.60;;;0.32;;
32932;SDS011;19444;50.518;10.870;2023-08-07T04:25:27;1.27;;;0.30;;
32932;SDS011;19444;50.518;10.870;2023-08-07T04:28:24;1.17;;;0.35;;
32932;SDS011;19444;50.518;10.870;2023-08-07T04:31:23;1.92;;;0.52;;
32932;SDS011;19444;50.518;10.870;2023-08-07T04:34:20;1.05;;;0.32;;
32932;SDS011;19444;50.518;10.870;2023-08-07T04:37:17;0.90;;;0.35;;
32932;SDS011;19444;50.518;10.870;2023-08-07T04:40:14;0.50;;;0.32;;
32932;SDS011;19444;50.518;10.870;2023-08-07T04:43:11;0.75;;;0.47;;
32932;SDS011;19444;50.518;10.870;2023-08-07T04:46:09;0.93;;;0.32;;
32932;SDS011;19444;50.518;10.870;2023-08-07T04:49:08;1.45;;;0.40;;
32932;SDS011;19444;50.518;10.870;2023-08-07T04:52:05;0.75;;;0.30;;
32932;SDS011;19444;50.518;10.870;2023-08-07T04:58:12;0.30;;;0.30;;
32932;SDS011;19444;50.518;10.870;2023-08-07T05:01:09;0.85;;;0.35;;
32932;SDS011;19444;50.518;10.870;2023-08-07T05:04:06;0.70;;;0.40;;
32932;SDS011;19444;50.518;10.870;2023-08-07T05:07:03;1.42;;;0.40;;
32932;SDS011;19444;50.518;10.870;2023-08-07T05:10:01;0.65;;;0.40;;
32932;SDS011;19444;50.518;10.870;2023-08-07T05:12:58;0.70;;;0.30;;
32932;SDS011;19444;50.518;10.870;2023-08-07T05:15:56;0.70;;;0.30;;
32932;SDS011;19444;50.518;10.870;2023-08-07T05:18:52;0.30;;;0.30;;
32932;SDS011;19444;50.518;10.870;2023-08-07T05:21:49;0.70;;;0.47;;
32932;SDS011;19444;50.518;10.870;2023-08-07T05:24:47;0.35;;;0.30;;
32932;SDS011;19444;50.518;10.870;2023-08-07T05:27:45;1.58;;;0.57;;
32932;SDS011;19444;50.518;10.870;2023-08-07T05:30:42;1.20;;;0.32;;
32932;SDS011;19444;50.518;10.870;2023-08-07T05:33:39;1.23;;;0.40;;
32932;SDS011;19444;50.518;10.870;2023-08-07T05:36:36;0.90;;;0.52;;
32932;SDS011;19444;50.518;10.870;2023-08-07T05:39:34;0.73;;;0.40;;
32932;SDS011;19444;50.518;10.870;2023-08-07T05:42:32;1.00;;;0.60;;
32932;SDS011;19444;50.518;10.870;2023-08-07T05:45:29;0.50;;;0.30;;
32932;SDS011;19444;50.518;10.870;2023-08-07T05:48:26;1.33;;;0.50;;
32932;SDS011;19444;50.518;10.870;2023-08-07T05:51:23;0.90;;;0.52;;
32932;SDS011;19444;50.518;10.870;2023-08-07T05:54:20;1.33;;;0.55;;
32932;SDS011;19444;50.518;10.870;2023-08-07T05:57:17;1.42;;;0.60;;
32932;SDS011;19444;50.518;10.870;2023-08-07T06:00:14;1.00;;;0.60;;
32932;SDS011;19444;50.518;10.870;2023-08-07T06:03:14;0.93;;;0.50;;
32932;SDS011;19444;50.518;10.870;2023-08-07T06:06:11;2.63;;;0.60;;
32932;SDS011;19444;50.518;10.870;2023-08-07T06:09:09;2.83;;;0.60;;
32932;SDS011;19444;50.518;10.870;2023-08-07T06:12:06;1.75;;;0.80;;
32932;SDS011;19444;50.518;10.870;2023-08-07T06:15:03;1.10;;;0.50;;
32932;SDS011;19444;50.518;10.870;2023-08-07T06:18:01;3.03;;;0.50;;
32932;SDS011;19444;50.518;10.870;2023-08-07T06:20:59;1.52;;;0.52;;
32932;SDS011;19444;50.518;10.870;2023-08-07T06:23:56;1.30;;;0.68;;
32932;SDS011;19444;50.518;10.870;2023-08-07T06:26:53;2.05;;;0.70;;
32932;SDS011;19444;50.518;10.870;2023-08-07T06:29:50;0.50;;;0.30;;
32932;SDS011;19444;50.518;10.870;2023-08-07T06:32:47;1.75;;;0.60;;
32932;SDS011;19444;50.518;10.870;2023-08-07T06:35:44;1.25;;;0.60;;
32932;SDS011;19444;50.518;10.870;2023-08-07T06:38:41;0.90;;;0.50;;
32932;SDS011;19444;50.518;10.870;2023-08-07T06:41:38;0.60;;;0.50;;
32932;SDS011;19444;50.518;10.870;2023-08-07T06:44:35;0.80;;;0.57;;
32932;SDS011;19444;50.518;10.870;2023-08-07T06:47:32;1.70;;;0.80;;
32932;SDS011;19444;50.518;10.870;2023-08-07T06:50:29;1.60;;;0.65;;
32932;SDS011;19444;50.518;10.870;2023-08-07T06:53:26;2.38;;;0.40;;
32932;SDS011;19444;50.518;10.870;2023-08-07T06:56:23;1.83;;;0.40;;
32932;SDS011;19444;50.518;10.870;2023-08-07T06:59:20;0.80;;;0.47;;
32932;SDS011;19444;50.518;10.870;2023-08-07T07:02:17;1.08;;;0.50;;
32932;SDS011;19444;50.518;10.870;2023-08-07T07:05:13;3.13;;;0.43;;
32932;SDS011;19444;50.518;10.870;2023-08-07T07:08:13;1.77;;;0.32;;
32932;SDS011;19444;50.518;10.870;2023-08-07T07:11:10;0.57;;;0.30;;
32932;SDS011;19444;50.518;10.870;2023-08-07T07:14:08;2.63;;;0.40;;
32932;SDS011;19444;50.518;10.870;2023-08-07T07:17:05;1.67;;;0.40;;
32932;SDS011;19444;50.518;10.870;2023-08-07T07:20:02;2.15;;;0.30;;
32932;SDS011;19444;50.518;10.870;2023-08-07T07:22:59;1.45;;;0.50;;
32932;SDS011;19444;50.518;10.870;2023-08-07T07:25:56;1.73;;;0.68;;
32932;SDS011;19444;50.518;10.870;2023-08-07T07:28:54;0.52;;;0.30;;
32932;SDS011;19444;50.518;10.870;2023-08-07T07:31:51;0.88;;;0.30;;
32932;SDS011;19444;50.518;10.870;2023-08-07T07:34:50;0.52;;;0.30;;
32932;SDS011;19444;50.518;10.870;2023-08-07T07:37:47;1.02;;;0.40;;
32932;SDS011;19444;50.518;10.870;2023-08-07T07:40:44;0.80;;;0.40;;
32932;SDS011;19444;50.518;10.870;2023-08-07T07:43:41;1.02;;;0.50;;
32932;SDS011;19444;50.518;10.870;2023-08-07T07:46:39;1.15;;;0.38;;
32932;SDS011;19444;50.518;10.870;2023-08-07T07:49:36;0.88;;;0.40;;
32932;SDS011;19444;50.518;10.870;2023-08-07T07:52:33;0.70;;;0.43;;
32932;SDS011;19444;50.518;10.870;2023-08-07T07:55:30;0.70;;;0.50;;
32932;SDS011;19444;50.518;10.870;2023-08-07T07:58:27;0.68;;;0.35;;
32932;SDS011;19444;50.518;10.870;2023-08-07T08:01:24;0.50;;;0.32;;
32932;SDS011;19444;50.518;10.870;2023-08-07T08:04:21;0.50;;;0.30;;
32932;SDS011;19444;50.518;10.870;2023-08-07T08:07:18;0.90;;;0.20;;
32932;SDS011;19444;50.518;10.870;2023-08-07T08:10:15;1.02;;;0.40;;
32932;SDS011;19444;50.518;10.870;2023-08-07T08:13:12;0.35;;;0.20;;
32932;SDS011;19444;50.518;10.870;2023-08-07T08:16:13;0.35;;;0.20;;
32932;SDS011;19444;50.518;10.870;2023-08-07T08:19:11;0.70;;;0.40;;
32932;SDS011;19444;50.518;10.870;2023-08-07T08:22:08;1.15;;;0.30;;
32932;SDS011;19444;50.518;10.870;2023-08-07T08:25:05;0.45;;;0.30;;
32932;SDS011;19444;50.518;10.870;2023-08-07T08:28:03;0.45;;;0.30;;
32932;SDS011;19444;50.518;10.870;2023-08-07T08:31:00;0.60;;;0.30;;
32932;SDS011;19444;50.518;10.870;2023-08-07T08:33:57;4.15;;;0.52;;
32932;SDS011;19444;50.518;10.870;2023-08-07T08:36:54;0.40;;;0.30;;
32932;SDS011;19444;50.518;10.870;2023-08-07T08:39:51;0.63;;;0.22;;
32932;SDS011;19444;50.518;10.870;2023-08-07T08:42:48;1.23;;;0.40;;
32932;SDS011;19444;50.518;10.870;2023-08-07T08:45:47;0.60;;;0.30;;
32932;SDS011;19444;50.518;10.870;2023-08-07T08:48:47;0.80;;;0.40;;
32932;SDS011;19444;50.518;10.870;2023-08-07T08:51:52;1.05;;;0.40;;
32932;SDS011;19444;50.518;10.870;2023-08-07T08:54:50;0.35;;;0.20;;
32932;SDS011;19444;50.518;10.870;2023-08-07T08:57:47;0.40;;;0.20;;
32932;SDS011;19444;50.518;10.870;2023-08-07T09:00:46;0.50;;;0.30;;
32932;SDS011;19444;50.518;10.870;2023-08-07T09:03:44;0.55;;;0.30;;
32932;SDS011;19444;50.518;10.870;2023-08-07T09:06:42;1.33;;;0.22;;
32932;SDS011;19444;50.518;10.870;2023-08-07T09:09:39;0.55;;;0.25;;
32932;SDS011;19444;50.518;10.870;2023-08-07T09:12:41;0.73;;;0.20;;
32932;SDS011;19444;50.518;10.870;2023-08-07T09:15:45;0.75;;;0.32;;
32932;SDS011;19444;50.518;10.870;2023-08-07T09:18:46;0.73;;;0.30;;
32932;SDS011;19444;50.518;10.870;2023-08-07T09:21:44;1.38;;;0.40;;
32932;SDS011;19444;50.518;10.870;2023-08-07T09:24:41;0.70;;;0.40;;
32932;SDS011;19444;50.518;10.870;2023-08-07T09:27:38;0.57;;;0.20;;
32932;SDS011;19444;50.518;10.870;2023-08-07T09:30:36;0.70;;;0.30;;
32932;SDS011;19444;50.518;10.870;2023-08-07T09:33:34;0.75;;;0.30;;
32932;SDS011;19444;50.518;10.870;2023-08-07T09:36:31;0.57;;;0.40;;
32932;SDS011;19444;50.518;10.870;2023-08-07T09:39:30;0.60;;;0.32;;
32932;SDS011;19444;50.518;10.870;2023-08-07T09:42:28;1.10;;;0.52;;
32932;SDS011;19444;50.518;10.870;2023-08-07T09:45:28;0.70;;;0.38;;
32932;SDS011;19444;50.518;10.870;2023-08-07T09:48:27;1.38;;;0.30;;
32932;SDS011;19444;50.518;10.870;2023-08-07T09:51:24;0.38;;;0.30;;
32932;SDS011;19444;50.518;10.870;2023-08-07T09:54:21;0.45;;;0.30;;
32932;SDS011;19444;50.518;10.870;2023-08-07T09:57:18;0.50;;;0.20;;
32932;SDS011;19444;50.518;10.870;2023-08-07T10:00:17;0.55;;;0.40;;
32932;SDS011;19444;50.518;10.870;2023-08-07T10:03:19;0.65;;;0.28;;
32932;SDS011;19444;50.518;10.870;2023-08-07T10:06:17;0.88;;;0.50;;
32932;SDS011;19444;50.518;10.870;2023-08-07T10:09:15;1.00;;;0.50;;
32932;SDS011;19444;50.518;10.870;2023-08-07T10:12:13;0.95;;;0.70;;
32932;SDS011;19444;50.518;10.870;2023-08-07T10:15:12;1.23;;;0.70;;
32932;SDS011;19444;50.518;10.870;2023-08-07T10:18:10;1.00;;;0.63;;
32932;SDS011;19444;50.518;10.870;2023-08-07T10:21:08;1.25;;;0.70;;
32932;SDS011;19444;50.518;10.870;2023-08-07T10:24:06;1.45;;;0.85;;
32932;SDS011;19444;50.518;10.870;2023-08-07T10:27:05;1.60;;;1.00;;
32932;SDS011;19444;50.518;10.870;2023-08-07T10:30:05;2.63;;;0.80;;
32932;SDS011;19444;50.518;10.870;2023-08-07T10:33:05;1.75;;;1.10;;
32932;SDS011;19444;50.518;10.870;2023-08-07T10:36:07;1.40;;;0.88;;
32932;SDS011;19444;50.518;10.870;2023-08-07T10:39:07;2.50;;;1.80;;
32932;SDS011;19444;50.518;10.870;2023-08-07T10:42:07;2.10;;;1.45;;
32932;SDS011;19444;50.518;10.870;2023-08-07T10:45:04;1.58;;;1.00;;
32932;SDS011;19444;50.518;10.870;2023-08-07T10:51:03;2.15;;;1.23;;
32932;SDS011;19444;50.518;10.870;2023-08-07T10:54:01;2.40;;;1.77;;
32932;SDS011;19444;50.518;10.870;2023-08-07T10:56:58;3.97;;;1.33;;
32932;SDS011;19444;50.518;10.870;2023-08-07T11:02:57;1.58;;;1.08;;
32932;SDS011;19444;50.518;10.870;2023-08-07T11:05:57;2.23;;;1.00;;
32932;SDS011;19444;50.518;10.870;2023-08-07T11:08:55;1.88;;;1.00;;
32932;SDS011;19444;50.518;10.870;2023-08-07T11:11:53;1.67;;;1.10;;
32932;SDS011;19444;50.518;10.870;2023-08-07T11:14:50;3.03;;;2.08;;
32932;SDS011;19444;50.518;10.870;2023-08-07T11:17:48;2.08;;;1.52;;
32932;SDS011;19444;50.518;10.870;2023-08-07T11:20:45;1.98;;;1.20;;
32932;SDS011;19444;50.518;10.870;2023-08-07T11:23:42;3.40;;;1.70;;
32932;SDS011;19444;50.518;10.870;2023-08-07T11:26:44;2.28;;;1.85;;
32932;SDS011;19444;50.518;10.870;2023-08-07T11:29:41;3.55;;;1.80;;
32932;SDS011;19444;50.518;10.870;2023-08-07T11:32:44;4.22;;;1.98;;
32932;SDS011;19444;50.518;10.870;2023-08-07T11:35:44;3.08;;;2.17;;
32932;SDS011;19444;50.518;10.870;2023-08-07T11:38:42;3.42;;;2.10;;
32932;SDS011;19444;50.518;10.870;2023-08-07T11:41:40;3.13;;;2.03;;
32932;SDS011;19444;50.518;10.870;2023-08-07T11:44:38;4.13;;;2.50;;
32932;SDS011;19444;50.518;10.870;2023-08-07T11:47:38;3.05;;;2.20;;
32932;SDS011;19444;50.518;10.870;2023-08-07T11:50:35;4.50;;;2.47;;
32932;SDS011;19444;50.518;10.870;2023-08-07T11:53:35;4.60;;;3.22;;
32932;SDS011;19444;50.518;10.870;2023-08-07T11:56:33;3.38;;;2.60;;
32932;SDS011;19444;50.518;10.870;2023-08-07T11:59:30;4.07;;;2.97;;
32932;SDS011;19444;50.518;10.870;2023-08-07T12:02:27;4.65;;;3.40;;
32932;SDS011;19444;50.518;10.870;2023-08-07T12:05:24;4.22;;;2.85;;
32932;SDS011;19444;50.518;10.870;2023-08-07T12:08:21;6.45;;;3.33;;
32932;SDS011;19444;50.518;10.870;2023-08-07T12:11:18;5.38;;;2.50;;
32932;SDS011;19444;50.518;10.870;2023-08-07T12:14:17;5.45;;;2.83;;
32932;SDS011;19444;50.518;10.870;2023-08-07T12:17:14;3.92;;;2.58;;
32932;SDS011;19444;50.518;10.870;2023-08-07T12:20:12;4.30;;;2.30;;
32932;SDS011;19444;50.518;10.870;2023-08-07T12:23:16;4.65;;;2.38;;
32932;SDS011;19444;50.518;10.870;2023-08-07T12:26:14;3.47;;;2.60;;
32932;SDS011;19444;50.518;10.870;2023-08-07T12:29:12;3.85;;;2.40;;
32932;SDS011;19444;50.518;10.870;2023-08-07T12:32:09;3.95;;;2.92;;
32932;SDS011;19444;50.518;10.870;2023-08-07T12:35:06;3.78;;;2.53;;
32932;SDS011;19444;50.518;10.870;2023-08-07T12:38:10;3.50;;;2.55;;
32932;SDS011;19444;50.518;10.870;2023-08-07T12:41:10;2.33;;;1.77;;
32932;SDS011;19444;50.518;10.870;2023-08-07T12:44:10;2.17;;;1.70;;
32932;SDS011;19444;50.518;10.870;2023-08-07T12:47:08;2.22;;;1.60;;
32932;SDS011;19444;50.518;10.870;2023-08-07T12:50:05;3.55;;;1.88;;
32932;SDS011;19444;50.518;10.870;2023-08-07T12:53:02;2.85;;;1.92;;
32932;SDS011;19444;50.518;10.870;2023-08-07T12:55:59;1.85;;;1.30;;
32932;SDS011;19444;50.518;10.870;2023-08-07T12:58:56;3.33;;;1.90;;
32932;SDS011;19444;50.518;10.870;2023-08-07T13:01:53;2.50;;;1.60;;
32932;SDS011;19444;50.518;10.870;2023-08-07T13:04:50;3.92;;;1.70;;
32932;SDS011;19444;50.518;10.870;2023-08-07T13:07:48;3.08;;;1.85;;
32932;SDS011;19444;50.518;10.870;2023-08-07T13:10:45;2.55;;;1.42;;
32932;SDS011;19444;50.518;10.870;2023-08-07T13:13:45;3.73;;;1.63;;
32932;SDS011;19444;50.518;10.870;2023-08-07T13:16:42;2.22;;;1.40;;
32932;SDS011;19444;50.518;10.870;2023-08-07T13:19:39;2.20;;;1.35;;
32932;SDS011;19444;50.518;10.870;2023-08-07T13:22:36;3.70;;;2.15;;
32932;SDS011;19444;50.518;10.870;2023-08-07T13:25:34;9.30;;;4.90;;
32932;SDS011;19444;50.518;10.870;2023-08-07T13:28:31;4.32;;;2.60;;
32932;SDS011;19444;50.518;10.870;2023-08-07T13:31:28;2.70;;;2.00;;
32932;SDS011;19444;50.518;10.870;2023-08-07T13:34:25;2.78;;;1.85;;
32932;SDS011;19444;50.518;10.870;2023-08-07T13:37:22;3.47;;;2.30;;
32932;SDS011;19444;50.518;10.870;2023-08-07T13:40:19;8.18;;;3.97;;
32932;SDS011;19444;50.518;10.870;2023-08-07T13:43:17;3.35;;;1.75;;
32932;SDS011;19444;50.518;10.870;2023-08-07T13:46:14;2.42;;;1.50;;
32932;SDS011;19444;50.518;10.870;2023-08-07T13:49:10;3.25;;;1.70;;
32932;SDS011;19444;50.518;10.870;2023-08-07T13:52:07;2.95;;;2.00;;
32932;SDS011;19444;50.518;10.870;2023-08-07T13:55:04;4.35;;;2.00;;
32932;SDS011;19444;50.518;10.870;2023-08-07T13:58:02;3.00;;;1.45;;
32932;SDS011;19444;50.518;10.870;2023-08-07T14:00:59;1.80;;;1.10;;
32932;SDS011;19444;50.518;10.870;2023-08-07T14:03:56;2.85;;;1.40;;
32932;SDS011;19444;50.518;10.870;2023-08-07T14:06:53;2.70;;;1.60;;
32932;SDS011;19444;50.518;10.870;2023-08-07T14:09:50;2.53;;;1.20;;
32932;SDS011;19444;50.518;10.870;2023-08-07T14:12:47;1.90;;;1.20;;
32932;SDS011;19444;50.518;10.870;2023-08-07T14:15:44;1.70;;;0.93;;
32932;SDS011;19444;50.518;10.870;2023-08-07T14:18:41;3.20;;;1.00;;
32932;SDS011;19444;50.518;10.870;2023-08-07T14:21:38;2.28;;;1.30;;
32932;SDS011;19444;50.518;10.870;2023-08-07T14:24:35;2.28;;;1.20;;
32932;SDS011;19444;50.518;10.870;2023-08-07T14:27:33;3.47;;;1.20;;
32932;SDS011;19444;50.518;10.870;2023-08-07T14:30:30;1.83;;;1.15;;
32932;SDS011;19444;50.518;10.870;2023-08-07T14:33:28;2.15;;;1.38;;
32932;SDS011;19444;50.518;10.870;2023-08-07T14:36:25;2.65;;;1.55;;
32932;SDS011;19444;50.518;10.870;2023-08-07T14:39:22;1.63;;;1.27;;
32932;SDS011;19444;50.518;10.870;2023-08-07T14:42:19;3.53;;;1.77;;
32932;SDS011;19444;50.518;10.870;2023-08-07T14:45:16;1.77;;;1.30;;
32932;SDS011;19444;50.518;10.870;2023-08-07T14:48:16;3.00;;;1.60;;
32932;SDS011;19444;50.518;10.870;2023-08-07T14:51:13;3.55;;;1.75;;
32932;SDS011;19444;50.518;10.870;2023-08-07T14:54:10;2.85;;;1.65;;
32932;SDS011;19444;50.518;10.870;2023-08-07T14:57:07;3.08;;;1.70;;
32932;SDS011;19444;50.518;10.870;2023-08-07T15:00:05;3.50;;;2.25;;
32932;SDS011;19444;50.518;10.870;2023-08-07T15:03:04;3.60;;;2.22;;
32932;SDS011;19444;50.518;10.870;2023-08-07T15:06:01;4.10;;;2.53;;
32932;SDS011;19444;50.518;10.870;2023-08-07T15:08:58;4.10;;;2.35;;
32932;SDS011;19444;50.518;10.870;2023-08-07T15:11:55;6.18;;;2.13;;
32932;SDS011;19444;50.518;10.870;2023-08-07T15:14:52;4.88;;;2.42;;
32932;SDS011;19444;50.518;10.870;2023-08-07T15:17:49;6.03;;;2.55;;
32932;SDS011;19444;50.518;10.870;2023-08-07T15:20:47;4.28;;;2.72;;
32932;SDS011;19444;50.518;10.870;2023-08-07T15:23:45;6.10;;;2.80;;
32932;SDS011;19444;50.518;10.870;2023-08-07T15:26:42;4.60;;;2.28;;
32932;SDS011;19444;50.518;10.870;2023-08-07T15:29:39;4.13;;;2.28;;
32932;SDS011;19444;50.518;10.870;2023-08-07T15:32:37;3.35;;;2.70;;
32932;SDS011;19444;50.518;10.870;2023-08-07T15:35:37;5.10;;;2.42;;
32932;SDS011;19444;50.518;10.870;2023-08-07T15:38:33;6.78;;;2.83;;
32932;SDS011;19444;50.518;10.870;2023-08-07T15:41:32;4.63;;;2.53;;
32932;SDS011;19444;50.518;10.870;2023-08-07T15:44:30;4.53;;;2.78;;
32932;SDS011;19444;50.518;10.870;2023-08-07T15:47:26;4.95;;;2.50;;
32932;SDS011;19444;50.518;10.870;2023-08-07T15:50:23;2.88;;;2.22;;
32932;SDS011;19444;50.518;10.870;2023-08-07T15:53:20;5.85;;;2.70;;
32932;SDS011;19444;50.518;10.870;2023-08-07T15:56:18;4.80;;;2.88;;
32932;SDS011;19444;50.518;10.870;2023-08-07T15:59:15;5.22;;;2.70;;
32932;SDS011;19444;50.518;10.870;2023-08-07T16:02:12;4.25;;;2.60;;
32932;SDS011;19444;50.518;10.870;2023-08-07T16:05:09;4.32;;;2.50;;
32932;SDS011;19444;50.518;10.870;2023-08-07T16:08:06;4.75;;;2.25;;
32932;SDS011;19444;50.518;10.870;2023-08-07T16:11:05;4.03;;;2.60;;
32932;SDS011;19444;50.518;10.870;2023-08-07T16:14:02;7.72;;;3.50;;
32932;SDS011;19444;50.518;10.870;2023-08-07T16:16:59;9.10;;;3.75;;
32932;SDS011;19444;50.518;10.870;2023-08-07T16:19:57;3.60;;;2.13;;
32932;SDS011;19444;50.518;10.870;2023-08-07T16:22:54;5.07;;;2.17;;
32932;SDS011;19444;50.518;10.870;2023-08-07T16:25:51;20.98;;;16.60;;
32932;SDS011;19444;50.518;10.870;2023-08-07T16:28:48;5.40;;;2.60;;
32932;SDS011;19444;50.518;10.870;2023-08-07T16:31:45;5.97;;;3.00;;
32932;SDS011;19444;50.518;10.870;2023-08-07T16:34:42;11.43;;;8.52;;
32932;SDS011;19444;50.518;10.870;2023-08-07T16:37:39;4.75;;;2.40;;
32932;SDS011;19444;50.518;10.870;2023-08-07T16:40:36;6.30;;;2.67;;
32932;SDS011;19444;50.518;10.870;2023-08-07T16:43:34;5.97;;;2.53;;
32932;SDS011;19444;50.518;10.870;2023-08-07T16:46:31;5.63;;;2.88;;
32932;SDS011;19444;50.518;10.870;2023-08-07T16:49:28;6.88;;;2.97;;
32932;SDS011;19444;50.518;10.870;2023-08-07T16:52:25;4.97;;;2.50;;
32932;SDS011;19444;50.518;10.870;2023-08-07T16:55:22;4.30;;;2.90;;
32932;SDS011;19444;50.518;10.870;2023-08-07T16:58:19;5.10;;;2.47;;
32932;SDS011;19444;50.518;10.870;2023-08-07T17:01:16;6.18;;;2.30;;
32932;SDS011;19444;50.518;10.870;2023-08-07T17:04:14;4.60;;;2.20;;
32932;SDS011;19444;50.518;10.870;2023-08-07T17:07:11;3.80;;;2.70;;
32932;SDS011;19444;50.518;10.870;2023-08-07T17:10:08;4.70;;;2.20;;
32932;SDS011;19444;50.518;10.870;2023-08-07T17:13:09;9.00;;;3.58;;
32932;SDS011;19444;50.518;10.870;2023-08-07T17:16:06;8.30;;;4.97;;
32932;SDS011;19444;50.518;10.870;2023-08-07T17:19:03;6.88;;;3.05;;
32932;SDS011;19444;50.518;10.870;2023-08-07T17:22:00;5.25;;;2.28;;
32932;SDS011;19444;50.518;10.870;2023-08-07T17:24:58;5.28;;;2.47;;
32932;SDS011;19444;50.518;10.870;2023-08-07T17:27:55;4.72;;;3.45;;
32932;SDS011;19444;50.518;10.870;2023-08-07T17:30:52;8.88;;;2.72;;
32932;SDS011;19444;50.518;10.870;2023-08-07T17:33:49;3.92;;;2.85;;
32932;SDS011;19444;50.518;10.870;2023-08-07T17:36:46;6.93;;;3.65;;
32932;SDS011;19444;50.518;10.870;2023-08-07T17:39:43;3.20;;;2.13;;
32932;SDS011;19444;50.518;10.870;2023-08-07T17:42:40;9.57;;;4.07;;